Time;durP1;ratioP1;P1;durP2;ratioP2;P2;SDS_P1;SDS_P2;PMS_P1;PMS_P2;Temp;Humidity;BMP_temperature;BMP_pressure;BME280_temperature;BME280_humidity;BME280_pressure;Samples;Min_cycle;Max_cycle;Signal;HPM_P1;HPM_P2
2023/05/07 00:01:42;;;;;;;31.30;27.95;;;;;;;;;;5033204;28;20224;-69
2023/05/07 00:04:08;;;;;;;31.20;26.85;;;;;;;;;;5035434;28;20193;-69
2023/05/07 00:06:33;;;;;;;33.28;28.50;;;;;;;;;;5040282;28;20178;-69
2023/05/07 00:09:00;;;;;;;31.55;28.13;;;;;;;;;;5045929;28;20185;-69
2023/05/07 00:11:26;;;;;;;30.25;27.10;;;;;;;;;;5038498;28;20220;-69
2023/05/07 00:13:52;;;;;;;33.30;27.58;;;;;;;;;;5046551;28;20189;-70
2023/05/07 00:16:17;;;;;;;31.48;27.95;;;;;;;;;;5039896;28;20704;-69
2023/05/07 00:18:43;;;;;;;30.40;27.10;;;;;;;;;;5046278;28;20193;-69
2023/05/07 00:21:08;;;;;;;29.58;26.23;;;;;;;;;;5046537;28;20186;-69
2023/05/07 00:23:34;;;;;;;33.95;28.90;;;;;;;;;;5046338;28;20193;-70
2023/05/07 00:25:59;;;;;;;30.95;27.73;;;;;;;;;;5042670;28;20261;-70
2023/05/07 00:28:24;;;;;;;32.10;28.70;;;;;;;;;;5045410;28;20185;-69
2023/05/07 00:30:50;;;;;;;32.92;29.35;;;;;;;;;;5028366;28;20190;-69
2023/05/07 00:33:15;;;;;;;31.48;28.10;;;;;;;;;;5040913;28;20190;-69
2023/05/07 00:35:43;;;;;;;30.70;27.00;;;;;;;;;;5047715;28;20185;-70
2023/05/07 00:38:08;;;;;;;30.55;27.30;;;;;;;;;;5043338;28;20376;-69
2023/05/07 00:40:34;;;;;;;30.48;27.33;;;;;;;;;;5043432;28;20197;-70
2023/05/07 00:42:59;;;;;;;33.55;28.00;;;;;;;;;;5034257;28;20527;-69
2023/05/07 00:45:27;;;;;;;31.67;28.30;;;;;;;;;;5046987;28;20229;-69
2023/05/07 00:47:58;;;;;;;34.20;30.27;;;;;;;;;;5039348;28;20293;-69
2023/05/07 00:50:23;;;;;;;32.92;29.33;;;;;;;;;;5038168;28;20272;-69
2023/05/07 00:52:49;;;;;;;37.85;29.95;;;;;;;;;;5043066;28;20347;-69
2023/05/07 00:55:15;;;;;;;33.30;29.85;;;;;;;;;;5055864;28;20186;-69
2023/05/07 00:57:41;;;;;;;34.45;30.30;;;;;;;;;;5044055;28;20262;-69
2023/05/07 01:00:12;;;;;;;33.88;29.33;;;;;;;;;;5043156;28;20309;-70
2023/05/07 01:02:39;;;;;;;35.17;30.40;;;;;;;;;;5050928;28;20197;-70
2023/05/07 01:05:07;;;;;;;33.50;30.00;;;;;;;;;;5049856;28;20193;-69
2023/05/07 01:07:34;;;;;;;34.13;29.92;;;;;;;;;;5050840;28;20264;-70
2023/05/07 01:10:00;;;;;;;33.25;28.27;;;;;;;;;;5036701;28;20186;-69
2023/05/07 01:12:27;;;;;;;35.67;29.42;;;;;;;;;;5049470;28;20194;-70
2023/05/07 01:14:53;;;;;;;31.95;28.42;;;;;;;;;;5035410;28;20174;-69
2023/05/07 01:17:18;;;;;;;31.85;28.00;;;;;;;;;;5037652;28;20768;-70
2023/05/07 01:19:44;;;;;;;30.65;26.73;;;;;;;;;;5040487;28;20200;-69
2023/05/07 01:22:14;;;;;;;30.13;25.88;;;;;;;;;;5047288;28;20186;-69
2023/05/07 01:24:40;;;;;;;31.65;25.80;;;;;;;;;;5035527;28;20219;-70
2023/05/07 01:27:05;;;;;;;28.52;24.70;;;;;;;;;;5044663;28;20200;-70
2023/05/07 01:29:31;;;;;;;31.45;26.73;;;;;;;;;;5046226;28;20194;-70
2023/05/07 01:31:58;;;;;;;27.90;24.02;;;;;;;;;;5039143;28;20570;-70
2023/05/07 01:34:25;;;;;;;24.30;21.70;;;;;;;;;;5037848;28;20305;-70
2023/05/07 01:36:55;;;;;;;27.20;22.52;;;;;;;;;;5050011;28;20202;-70
2023/05/07 01:39:21;;;;;;;26.08;21.38;;;;;;;;;;5041435;28;20683;-70
2023/05/07 01:41:46;;;;;;;27.50;21.80;;;;;;;;;;5039502;28;20260;-71
2023/05/07 01:44:14;;;;;;;26.88;20.05;;;;;;;;;;5043525;28;20632;-71
2023/05/07 01:46:40;;;;;;;27.02;21.13;;;;;;;;;;5045676;28;20732;-70
2023/05/07 01:49:05;;;;;;;26.27;20.27;;;;;;;;;;5046622;28;20216;-70
2023/05/07 01:51:31;;;;;;;25.90;20.08;;;;;;;;;;5049161;28;20617;-70
2023/05/07 01:53:57;;;;;;;24.63;19.92;;;;;;;;;;5046256;28;20255;-70
2023/05/07 01:56:24;;;;;;;27.95;20.63;;;;;;;;;;5033159;28;20321;-70
2023/05/07 01:58:51;;;;;;;27.02;20.40;;;;;;;;;;5042950;28;20205;-70
2023/05/07 02:01:17;;;;;;;30.27;22.67;;;;;;;;;;5050134;28;20583;-70
2023/05/07 02:03:42;;;;;;;28.75;21.55;;;;;;;;;;5042626;28;20687;-70
2023/05/07 02:06:07;;;;;;;30.52;22.27;;;;;;;;;;5048518;28;20182;-70
2023/05/07 02:08:33;;;;;;;29.30;22.00;;;;;;;;;;5048707;28;20660;-70
2023/05/07 02:10:58;;;;;;;29.67;22.73;;;;;;;;;;5037911;28;20286;-70
2023/05/07 02:13:24;;;;;;;30.55;22.73;;;;;;;;;;5048556;28;20267;-70
2023/05/07 02:15:50;;;;;;;37.85;24.30;;;;;;;;;;5037210;28;20189;-70
2023/05/07 02:18:16;;;;;;;31.58;23.27;;;;;;;;;;5043306;28;20197;-70
2023/05/07 02:20:42;;;;;;;36.50;25.50;;;;;;;;;;5035388;28;20189;-70
2023/05/07 02:23:07;;;;;;;34.58;24.25;;;;;;;;;;5048761;28;20545;-70
2023/05/07 02:25:33;;;;;;;34.15;24.55;;;;;;;;;;5046202;28;20192;-71
2023/05/07 02:27:58;;;;;;;32.63;23.77;;;;;;;;;;5043366;28;20201;-71
2023/05/07 02:30:25;;;;;;;34.92;23.92;;;;;;;;;;5040469;28;20192;-71
2023/05/07 02:32:50;;;;;;;34.72;26.30;;;;;;;;;;5048170;28;20190;-70
2023/05/07 02:35:15;;;;;;;37.55;25.45;;;;;;;;;;5044956;28;20665;-71
2023/05/07 02:37:41;;;;;;;36.47;26.73;;;;;;;;;;5041101;28;20581;-70
2023/05/07 02:40:07;;;;;;;36.00;27.00;;;;;;;;;;5034737;28;20684;-70
2023/05/07 02:42:32;;;;;;;36.90;26.85;;;;;;;;;;5035776;28;20918;-71
2023/05/07 02:44:58;;;;;;;39.30;27.30;;;;;;;;;;5056651;28;20189;-71
2023/05/07 02:47:23;;;;;;;41.25;28.10;;;;;;;;;;5059328;28;20186;-70
2023/05/07 02:49:48;;;;;;;36.65;26.48;;;;;;;;;;5044835;28;20185;-70
2023/05/07 02:52:14;;;;;;;36.58;26.65;;;;;;;;;;5041499;28;20350;-71
2023/05/07 02:54:39;;;;;;;38.65;27.13;;;;;;;;;;5041149;28;20277;-70
2023/05/07 02:57:05;;;;;;;41.03;27.25;;;;;;;;;;5045464;28;20681;-70
2023/05/07 02:59:30;;;;;;;38.22;27.55;;;;;;;;;;5041307;28;20252;-71
2023/05/07 03:01:55;;;;;;;42.38;27.23;;;;;;;;;;5039121;28;20209;-71
2023/05/07 03:04:21;;;;;;;39.03;28.73;;;;;;;;;;5050194;28;20267;-70
2023/05/07 03:06:46;;;;;;;36.78;28.00;;;;;;;;;;5038897;28;20189;-70
2023/05/07 03:09:11;;;;;;;38.17;28.25;;;;;;;;;;5044751;28;20193;-71
2023/05/07 03:11:37;;;;;;;41.60;27.58;;;;;;;;;;5048599;28;20213;-70
2023/05/07 03:14:02;;;;;;;41.10;29.05;;;;;;;;;;5043131;28;20196;-70
2023/05/07 03:16:28;;;;;;;37.58;26.55;;;;;;;;;;5043697;28;20274;-70
2023/05/07 03:18:53;;;;;;;39.50;27.85;;;;;;;;;;5046773;28;20194;-71
2023/05/07 03:21:19;;;;;;;40.17;28.13;;;;;;;;;;5045891;28;20197;-71
2023/05/07 03:23:44;;;;;;;42.38;28.48;;;;;;;;;;5046577;28;20197;-70
2023/05/07 03:26:10;;;;;;;38.72;27.98;;;;;;;;;;5043512;28;20181;-70
2023/05/07 03:28:36;;;;;;;39.17;28.17;;;;;;;;;;5042663;28;20229;-70
2023/05/07 03:31:02;;;;;;;37.63;28.48;;;;;;;;;;5039358;28;20193;-70
2023/05/07 03:33:27;;;;;;;40.72;28.55;;;;;;;;;;5045862;28;20193;-70
2023/05/07 03:35:53;;;;;;;41.63;29.13;;;;;;;;;;5035730;28;20595;-70
2023/05/07 03:38:18;;;;;;;39.55;28.63;;;;;;;;;;5038392;28;20276;-71
2023/05/07 03:40:43;;;;;;;41.20;28.35;;;;;;;;;;5046461;28;20675;-70
2023/05/07 03:43:09;;;;;;;39.60;28.50;;;;;;;;;;5041508;28;20201;-70
2023/05/07 03:45:35;;;;;;;40.88;28.55;;;;;;;;;;5041758;28;20228;-70
2023/05/07 03:48:00;;;;;;;42.17;28.98;;;;;;;;;;5047759;28;20193;-70
2023/05/07 03:50:25;;;;;;;40.03;30.25;;;;;;;;;;5046051;28;20272;-70
2023/05/07 03:52:51;;;;;;;42.38;29.17;;;;;;;;;;5046264;28;20227;-70
2023/05/07 03:55:16;;;;;;;43.85;29.80;;;;;;;;;;5045604;28;20811;-70
2023/05/07 03:57:42;;;;;;;51.75;31.58;;;;;;;;;;5044582;28;20217;-70
2023/05/07 04:00:08;;;;;;;43.15;29.33;;;;;;;;;;5047259;28;20197;-70
2023/05/07 04:02:33;;;;;;;40.55;29.63;;;;;;;;;;5044204;28;20190;-71
2023/05/07 04:04:59;;;;;;;46.45;29.92;;;;;;;;;;5047511;28;20192;-70
2023/05/07 04:07:24;;;;;;;43.50;30.65;;;;;;;;;;5043921;28;20185;-71
2023/05/07 04:09:49;;;;;;;45.15;30.63;;;;;;;;;;5042678;28;20221;-71
2023/05/07 04:12:15;;;;;;;42.75;30.33;;;;;;;;;;5034500;28;20194;-71
2023/05/07 04:14:40;;;;;;;43.28;28.48;;;;;;;;;;5043996;28;20199;-70
2023/05/07 04:17:06;;;;;;;40.78;29.38;;;;;;;;;;5047819;28;20213;-71
2023/05/07 04:19:33;;;;;;;46.35;30.98;;;;;;;;;;5040602;28;20214;-70
2023/05/07 04:21:58;;;;;;;43.13;30.58;;;;;;;;;;5046245;28;20252;-71
2023/05/07 04:24:24;;;;;;;40.97;29.35;;;;;;;;;;5043869;28;20660;-71
2023/05/07 04:26:51;;;;;;;44.50;31.20;;;;;;;;;;5043149;28;20189;-70
2023/05/07 04:29:16;;;;;;;46.20;31.25;;;;;;;;;;5038360;28;20193;-70
2023/05/07 04:31:44;;;;;;;42.60;29.52;;;;;;;;;;5039696;28;20213;-70
2023/05/07 04:34:10;;;;;;;45.75;30.55;;;;;;;;;;5044587;28;20209;-70
2023/05/07 04:36:37;;;;;;;45.70;30.83;;;;;;;;;;5034183;28;20208;-70
2023/05/07 04:39:03;;;;;;;47.30;30.63;;;;;;;;;;5049470;28;21306;-70
2023/05/07 04:41:29;;;;;;;43.50;30.70;;;;;;;;;;5050439;28;20189;-70
2023/05/07 04:43:55;;;;;;;46.00;31.60;;;;;;;;;;5050954;28;20186;-70
2023/05/07 04:46:20;;;;;;;45.20;31.58;;;;;;;;;;5060391;28;20256;-70
2023/05/07 04:48:46;;;;;;;46.95;31.55;;;;;;;;;;5050333;28;20185;-70
2023/05/07 04:51:11;;;;;;;45.08;30.48;;;;;;;;;;5043927;28;20247;-71
2023/05/07 04:53:37;;;;;;;45.00;29.60;;;;;;;;;;5046759;28;20189;-71
2023/05/07 04:56:03;;;;;;;50.20;32.45;;;;;;;;;;5031316;28;20225;-70
2023/05/07 04:58:31;;;;;;;51.05;31.67;;;;;;;;;;5046770;28;20607;-71
2023/05/07 05:00:57;;;;;;;48.65;32.45;;;;;;;;;;5050969;28;20198;-71
2023/05/07 05:03:22;;;;;;;48.50;32.60;;;;;;;;;;5050124;28;20201;-71
2023/05/07 05:05:49;;;;;;;44.72;32.50;;;;;;;;;;5034433;28;20247;-72
2023/05/07 05:08:15;;;;;;;50.20;33.42;;;;;;;;;;5049200;28;20189;-71
2023/05/07 05:10:41;;;;;;;50.20;33.78;;;;;;;;;;5049791;28;20487;-71
2023/05/07 05:13:07;;;;;;;52.53;33.13;;;;;;;;;;5020963;28;20386;-71
2023/05/07 05:15:33;;;;;;;51.20;32.63;;;;;;;;;;5042621;28;20201;-71
2023/05/07 05:17:58;;;;;;;48.70;32.63;;;;;;;;;;5043480;28;20267;-71
2023/05/07 05:20:23;;;;;;;49.97;33.60;;;;;;;;;;5035133;28;20338;-71
2023/05/07 05:22:49;;;;;;;53.72;33.35;;;;;;;;;;5044930;28;20198;-71
2023/05/07 05:25:15;;;;;;;51.20;32.55;;;;;;;;;;5046926;28;20189;-71
2023/05/07 05:27:40;;;;;;;50.58;33.60;;;;;;;;;;5038841;28;20181;-72
2023/05/07 05:30:06;;;;;;;54.17;33.55;;;;;;;;;;5018032;28;20242;-72
2023/05/07 05:32:31;;;;;;;50.08;33.38;;;;;;;;;;5040917;28;20198;-71
2023/05/07 05:34:57;;;;;;;51.10;34.58;;;;;;;;;;5038629;28;20182;-71
2023/05/07 05:37:22;;;;;;;49.80;34.08;;;;;;;;;;5039893;28;20774;-71
2023/05/07 05:39:48;;;;;;;49.13;31.98;;;;;;;;;;5044468;28;20277;-71
2023/05/07 05:42:13;;;;;;;51.88;34.13;;;;;;;;;;5042152;28;20611;-71
2023/05/07 05:44:38;;;;;;;51.85;33.60;;;;;;;;;;5061299;28;20185;-71
2023/05/07 05:47:04;;;;;;;49.67;34.00;;;;;;;;;;5042957;28;20233;-71
2023/05/07 05:49:29;;;;;;;52.20;34.95;;;;;;;;;;5031582;28;20213;-71
2023/05/07 05:51:55;;;;;;;48.35;32.60;;;;;;;;;;5041445;28;20200;-72
2023/05/07 05:54:24;;;;;;;51.25;33.88;;;;;;;;;;5050569;28;20205;-72
2023/05/07 05:56:49;;;;;;;52.85;34.63;;;;;;;;;;5045111;28;20296;-73
2023/05/07 05:59:15;;;;;;;50.20;35.00;;;;;;;;;;5038966;28;20280;-71
2023/05/07 06:01:40;;;;;;;52.00;34.10;;;;;;;;;;5046481;28;20801;-72
2023/05/07 06:04:06;;;;;;;53.25;35.67;;;;;;;;;;5030389;28;20186;-72
2023/05/07 06:06:32;;;;;;;55.17;34.65;;;;;;;;;;5029248;28;20205;-71
2023/05/07 06:08:57;;;;;;;52.92;35.05;;;;;;;;;;5041352;28;20542;-71
2023/05/07 06:11:26;;;;;;;54.13;34.03;;;;;;;;;;5041260;28;20200;-76
2023/05/07 06:13:51;;;;;;;50.95;34.72;;;;;;;;;;5037473;28;20205;-71
2023/05/07 06:16:17;;;;;;;47.92;33.97;;;;;;;;;;5039222;28;20213;-71
2023/05/07 06:18:42;;;;;;;50.53;34.75;;;;;;;;;;5039500;28;20197;-71
2023/05/07 06:21:08;;;;;;;51.38;35.08;;;;;;;;;;5048619;28;20540;-70
2023/05/07 06:23:33;;;;;;;49.13;33.83;;;;;;;;;;5040456;28;20193;-71
2023/05/07 06:25:58;;;;;;;53.10;34.92;;;;;;;;;;5046850;28;20197;-70
2023/05/07 06:28:24;;;;;;;52.25;34.20;;;;;;;;;;5038115;28;20248;-72
2023/05/07 06:30:52;;;;;;;52.70;35.00;;;;;;;;;;5041537;28;20452;-71
2023/05/07 06:33:17;;;;;;;50.13;34.15;;;;;;;;;;5041037;28;20255;-71
2023/05/07 06:35:43;;;;;;;52.45;34.95;;;;;;;;;;5043899;28;20190;-70
2023/05/07 06:38:08;;;;;;;50.60;33.22;;;;;;;;;;5036665;28;20226;-70
2023/05/07 06:40:33;;;;;;;50.40;35.10;;;;;;;;;;5035361;28;20202;-72
2023/05/07 06:42:59;;;;;;;50.15;33.63;;;;;;;;;;5039977;28;20198;-70
2023/05/07 06:45:25;;;;;;;51.15;33.92;;;;;;;;;;5037422;28;20353;-70
2023/05/07 06:47:50;;;;;;;45.67;32.08;;;;;;;;;;5040166;28;20182;-70
2023/05/07 06:50:16;;;;;;;47.58;32.58;;;;;;;;;;5041719;28;20197;-70
2023/05/07 06:52:42;;;;;;;48.30;31.95;;;;;;;;;;5041533;28;20190;-70
2023/05/07 06:55:08;;;;;;;43.50;31.63;;;;;;;;;;5038319;28;20181;-70
2023/05/07 06:57:33;;;;;;;45.00;31.92;;;;;;;;;;5036066;28;20213;-70
2023/05/07 06:59:58;;;;;;;43.65;32.13;;;;;;;;;;5043201;28;20185;-70
2023/05/07 07:02:24;;;;;;;46.42;32.38;;;;;;;;;;5044852;28;20263;-70
2023/05/07 07:04:49;;;;;;;47.92;33.80;;;;;;;;;;5044793;28;20714;-70
2023/05/07 07:07:15;;;;;;;46.17;32.58;;;;;;;;;;5040184;28;20213;-70
2023/05/07 07:09:40;;;;;;;47.60;32.25;;;;;;;;;;5039973;28;20196;-71
2023/05/07 07:12:05;;;;;;;44.38;30.33;;;;;;;;;;5049016;28;20359;-70
2023/05/07 07:14:31;;;;;;;44.17;31.08;;;;;;;;;;5047336;28;20237;-70
2023/05/07 07:16:56;;;;;;;43.92;30.52;;;;;;;;;;5038908;28;20324;-70
2023/05/07 07:19:21;;;;;;;42.97;31.42;;;;;;;;;;5034408;28;20198;-71
2023/05/07 07:21:47;;;;;;;43.83;31.73;;;;;;;;;;5042581;28;20193;-70
2023/05/07 07:24:18;;;;;;;43.60;30.52;;;;;;;;;;5047572;28;20197;-69
2023/05/07 07:26:44;;;;;;;42.45;30.90;;;;;;;;;;5048432;28;20190;-69
2023/05/07 07:29:09;;;;;;;47.47;31.70;;;;;;;;;;5048019;28;20193;-70
2023/05/07 07:31:35;;;;;;;42.80;30.92;;;;;;;;;;5036275;28;20193;-70
2023/05/07 07:34:00;;;;;;;41.47;30.33;;;;;;;;;;5028526;28;20589;-70
2023/05/07 07:36:26;;;;;;;42.00;29.52;;;;;;;;;;5034759;28;20218;-71
2023/05/07 07:38:52;;;;;;;42.22;29.83;;;;;;;;;;5032693;28;20564;-70
2023/05/07 07:41:18;;;;;;;40.17;29.80;;;;;;;;;;5032825;28;20325;-71
2023/05/07 07:43:43;;;;;;;41.03;28.65;;;;;;;;;;5040578;28;20323;-70
2023/05/07 07:46:08;;;;;;;38.10;28.45;;;;;;;;;;5046104;28;20347;-70
2023/05/07 07:48:34;;;;;;;39.25;30.08;;;;;;;;;;5032854;28;20224;-69
2023/05/07 07:50:59;;;;;;;38.97;28.60;;;;;;;;;;5043650;28;20189;-70
2023/05/07 07:53:25;;;;;;;41.13;30.48;;;;;;;;;;5032892;28;20196;-70
2023/05/07 07:55:50;;;;;;;40.05;29.75;;;;;;;;;;5046490;28;20307;-70
2023/05/07 07:58:15;;;;;;;38.85;28.27;;;;;;;;;;5043998;28;20209;-69
2023/05/07 08:00:41;;;;;;;43.92;30.05;;;;;;;;;;5039922;28;20292;-70
2023/05/07 08:03:09;;;;;;;36.85;28.65;;;;;;;;;;5033376;28;20205;-70
2023/05/07 08:05:35;;;;;;;39.08;29.35;;;;;;;;;;5034065;28;20659;-71
2023/05/07 08:08:01;;;;;;;36.38;28.83;;;;;;;;;;5033389;28;20189;-70
2023/05/07 08:10:26;;;;;;;43.15;30.45;;;;;;;;;;5037728;28;20193;-70
2023/05/07 08:12:51;;;;;;;40.65;29.48;;;;;;;;;;5034487;28;20190;-70
2023/05/07 08:15:17;;;;;;;37.72;28.30;;;;;;;;;;5031601;28;20240;-71
2023/05/07 08:17:43;;;;;;;40.53;29.08;;;;;;;;;;5036268;28;20212;-70
2023/05/07 08:20:09;;;;;;;40.10;29.42;;;;;;;;;;5038849;28;20205;-70
2023/05/07 08:22:35;;;;;;;43.75;29.45;;;;;;;;;;5031687;28;20238;-70
2023/05/07 08:25:01;;;;;;;38.28;29.15;;;;;;;;;;5053856;28;20217;-70
2023/05/07 08:27:27;;;;;;;38.47;28.77;;;;;;;;;;5041412;28;20626;-70
2023/05/07 08:29:52;;;;;;;39.08;29.27;;;;;;;;;;5036231;28;20300;-71
2023/05/07 08:32:17;;;;;;;38.10;28.27;;;;;;;;;;5047152;28;20185;-71
2023/05/07 08:34:43;;;;;;;34.67;26.50;;;;;;;;;;5041376;28;20185;-71
2023/05/07 08:37:08;;;;;;;37.35;27.73;;;;;;;;;;5029416;28;20747;-71
2023/05/07 08:39:34;;;;;;;37.17;28.15;;;;;;;;;;5031426;28;20685;-71
2023/05/07 08:42:04;;;;;;;39.10;27.98;;;;;;;;;;5031908;28;20190;-73
2023/05/07 08:44:33;;;;;;;38.53;27.67;;;;;;;;;;5042405;28;20191;-71
2023/05/07 08:47:01;;;;;;;37.55;28.67;;;;;;;;;;5036396;28;20938;-71
2023/05/07 08:49:27;;;;;;;37.05;27.70;;;;;;;;;;5038311;28;20617;-70
2023/05/07 08:51:53;;;;;;;40.10;28.85;;;;;;;;;;5043909;28;20201;-71
2023/05/07 08:54:20;;;;;;;36.97;27.40;;;;;;;;;;5039305;28;20575;-71
2023/05/07 08:56:46;;;;;;;37.80;27.88;;;;;;;;;;5040430;28;20241;-70
2023/05/07 08:59:11;;;;;;;34.97;27.08;;;;;;;;;;5034178;28;20708;-72
2023/05/07 09:01:36;;;;;;;34.28;27.63;;;;;;;;;;5039327;28;20217;-71
2023/05/07 09:04:02;;;;;;;33.60;27.23;;;;;;;;;;5030686;28;20193;-71
2023/05/07 09:06:27;;;;;;;35.53;27.33;;;;;;;;;;5039327;28;20237;-71
2023/05/07 09:08:54;;;;;;;35.13;27.20;;;;;;;;;;5028273;28;20289;-72
2023/05/07 09:11:21;;;;;;;34.08;26.60;;;;;;;;;;5037194;28;20264;-70
2023/05/07 09:13:46;;;;;;;35.17;26.42;;;;;;;;;;5042893;28;20208;-71
2023/05/07 09:16:13;;;;;;;32.85;25.70;;;;;;;;;;5043868;28;20609;-70
2023/05/07 09:18:44;;;;;;;33.40;25.88;;;;;;;;;;5035678;28;20243;-70
2023/05/07 09:21:14;;;;;;;31.55;25.00;;;;;;;;;;5042633;28;20182;-70
2023/05/07 09:23:39;;;;;;;34.70;26.85;;;;;;;;;;5037435;28;20390;-70
2023/05/07 09:26:11;;;;;;;32.95;26.27;;;;;;;;;;5038975;28;20192;-70
2023/05/07 09:28:38;;;;;;;33.90;25.90;;;;;;;;;;5038131;28;20192;-70
2023/05/07 09:31:04;;;;;;;32.85;25.42;;;;;;;;;;5038176;28;20271;-70
2023/05/07 09:33:30;;;;;;;34.08;26.13;;;;;;;;;;5038401;28;20217;-71
2023/05/07 09:35:55;;;;;;;29.90;24.08;;;;;;;;;;5038778;28;20190;-70
2023/05/07 09:38:21;;;;;;;33.90;25.65;;;;;;;;;;5039086;28;20205;-71
2023/05/07 09:40:47;;;;;;;32.17;24.95;;;;;;;;;;5038863;28;20515;-70
2023/05/07 09:43:13;;;;;;;33.15;25.55;;;;;;;;;;5043542;28;20482;-71
2023/05/07 09:45:39;;;;;;;34.85;26.02;;;;;;;;;;5042273;28;20233;-71
2023/05/07 09:48:05;;;;;;;33.30;26.38;;;;;;;;;;5057148;28;20188;-71
2023/05/07 09:50:44;;;;;;;32.92;24.45;;;;;;;;;;5054728;28;20265;-71
2023/05/07 09:53:10;;;;;;;32.92;25.65;;;;;;;;;;5050079;28;20279;-71
2023/05/07 09:55:35;;;;;;;32.70;25.15;;;;;;;;;;5051130;28;20556;-71
2023/05/07 09:58:02;;;;;;;29.08;23.75;;;;;;;;;;5053901;28;20212;-72
2023/05/07 10:00:29;;;;;;;30.23;24.05;;;;;;;;;;5041256;28;20227;-72
2023/05/07 10:02:57;;;;;;;30.52;25.08;;;;;;;;;;5037992;28;20193;-71
2023/05/07 10:05:22;;;;;;;29.27;23.60;;;;;;;;;;5046964;28;20189;-71
2023/05/07 10:07:48;;;;;;;28.80;23.30;;;;;;;;;;5043296;28;20193;-70
2023/05/07 10:10:15;;;;;;;29.15;23.00;;;;;;;;;;5042436;28;20192;-71
2023/05/07 10:12:41;;;;;;;29.42;23.63;;;;;;;;;;5034274;28;20217;-71
2023/05/07 10:15:08;;;;;;;28.50;23.23;;;;;;;;;;5044847;28;20213;-71
2023/05/07 10:17:38;;;;;;;29.92;24.27;;;;;;;;;;5039200;28;20526;-72
2023/05/07 10:20:07;;;;;;;31.23;23.70;;;;;;;;;;5046483;28;20193;-71
2023/05/07 10:22:39;;;;;;;26.17;21.55;;;;;;;;;;5041682;28;20268;-71
2023/05/07 10:25:08;;;;;;;27.95;23.02;;;;;;;;;;5040817;28;20269;-72
2023/05/07 10:27:35;;;;;;;32.53;22.38;;;;;;;;;;5036576;28;20194;-70
2023/05/07 10:30:07;;;;;;;30.20;22.77;;;;;;;;;;5029503;28;20312;-70
2023/05/07 10:32:42;;;;;;;29.75;22.83;;;;;;;;;;5046275;28;20204;-71
2023/05/07 10:35:15;;;;;;;27.85;22.27;;;;;;;;;;5033657;28;20205;-71
2023/05/07 10:37:41;;;;;;;27.58;21.65;;;;;;;;;;5038916;28;20206;-71
2023/05/07 10:40:09;;;;;;;28.02;22.30;;;;;;;;;;5044393;28;20254;-71
2023/05/07 10:42:35;;;;;;;28.85;22.13;;;;;;;;;;5035304;28;20531;-71
2023/05/07 10:45:15;;;;;;;25.38;21.75;;;;;;;;;;5044553;28;20247;-71
2023/05/07 10:48:05;;;;;;;26.50;22.88;;;;;;;;;;5043096;28;20272;-71
2023/05/07 10:50:31;;;;;;;27.95;22.50;;;;;;;;;;5036896;28;20185;-71
2023/05/07 10:53:18;;;;;;;25.10;21.17;;;;;;;;;;5040720;28;20282;-70
2023/05/07 10:55:48;;;;;;;24.90;21.58;;;;;;;;;;5042453;28;20267;-71
2023/05/07 10:58:26;;;;;;;27.83;21.92;;;;;;;;;;5034991;28;20220;-71
2023/05/07 11:00:59;;;;;;;28.20;22.05;;;;;;;;;;5043630;28;20270;-71
2023/05/07 11:03:28;;;;;;;27.42;22.85;;;;;;;;;;5038613;28;20552;-71
2023/05/07 11:06:23;;;;;;;26.13;21.77;;;;;;;;;;5033034;28;20625;-73
2023/05/07 11:08:58;;;;;;;27.20;21.48;;;;;;;;;;5042765;28;20217;-71
2023/05/07 11:11:44;;;;;;;27.55;21.58;;;;;;;;;;5030962;28;20194;-71
2023/05/07 11:14:09;;;;;;;25.40;21.35;;;;;;;;;;5035130;28;20269;-71
2023/05/07 11:16:36;;;;;;;27.70;22.88;;;;;;;;;;5038960;28;20293;-71
2023/05/07 11:19:02;;;;;;;27.40;22.45;;;;;;;;;;5036150;28;20205;-71
2023/05/07 11:21:48;;;;;;;26.13;21.85;;;;;;;;;;5040524;28;20182;-71
2023/05/07 11:24:16;;;;;;;27.63;22.35;;;;;;;;;;5036910;28;20205;-72
2023/05/07 11:26:47;;;;;;;31.25;23.92;;;;;;;;;;5039793;28;20517;-72
2023/05/07 11:29:17;;;;;;;31.00;24.67;;;;;;;;;;5040017;28;20197;-70
2023/05/07 11:31:43;;;;;;;30.83;23.98;;;;;;;;;;5046200;28;20490;-70
2023/05/07 11:34:09;;;;;;;26.38;22.50;;;;;;;;;;5045212;28;20208;-70
2023/05/07 11:36:40;;;;;;;29.45;23.58;;;;;;;;;;5040144;28;20229;-70
2023/05/07 11:39:07;;;;;;;28.42;22.20;;;;;;;;;;5030292;28;20186;-70
2023/05/07 11:41:39;;;;;;;26.33;21.88;;;;;;;;;;5045919;28;20220;-69
2023/05/07 11:44:04;;;;;;;28.38;22.10;;;;;;;;;;5046939;28;20568;-71
2023/05/07 11:46:30;;;;;;;28.08;22.50;;;;;;;;;;5036609;28;20218;-70
2023/05/07 11:48:56;;;;;;;27.98;22.67;;;;;;;;;;5031200;28;20202;-70
2023/05/07 11:51:23;;;;;;;26.15;21.65;;;;;;;;;;5045616;28;20216;-70
2023/05/07 11:53:49;;;;;;;30.10;21.90;;;;;;;;;;5028398;28;20581;-70
2023/05/07 11:56:17;;;;;;;26.40;20.92;;;;;;;;;;5033070;28;20657;-70
2023/05/07 11:58:44;;;;;;;27.30;22.83;;;;;;;;;;5028610;28;20275;-69
2023/05/07 12:01:12;;;;;;;26.85;21.52;;;;;;;;;;5031018;28;20460;-70
2023/05/07 12:03:42;;;;;;;26.45;21.40;;;;;;;;;;5031538;28;20276;-69
2023/05/07 12:06:08;;;;;;;24.38;20.27;;;;;;;;;;5036679;28;20319;-69
2023/05/07 12:08:37;;;;;;;28.50;21.35;;;;;;;;;;5043123;28;20279;-70
2023/05/07 12:11:03;;;;;;;24.85;20.58;;;;;;;;;;5047064;28;20404;-70
2023/05/07 12:13:28;;;;;;;27.52;21.55;;;;;;;;;;5042813;28;20274;-72
2023/05/07 12:15:55;;;;;;;26.55;20.38;;;;;;;;;;5034213;28;20194;-70
2023/05/07 12:18:21;;;;;;;22.27;19.15;;;;;;;;;;5029910;28;21964;-72
2023/05/07 12:20:47;;;;;;;24.42;19.75;;;;;;;;;;5036777;28;20239;-69
2023/05/07 12:23:13;;;;;;;20.08;17.85;;;;;;;;;;5034586;28;20197;-71
2023/05/07 12:25:46;;;;;;;24.10;18.90;;;;;;;;;;5034116;28;20243;-71
2023/05/07 12:28:15;;;;;;;23.33;19.98;;;;;;;;;;5038479;28;20335;-70
2023/05/07 12:30:41;;;;;;;25.77;20.60;;;;;;;;;;5044198;28;20298;-70
2023/05/07 12:33:07;;;;;;;22.42;18.77;;;;;;;;;;5044532;28;21016;-70
2023/05/07 12:35:39;;;;;;;22.40;18.17;;;;;;;;;;5040593;28;20316;-69
2023/05/07 12:38:08;;;;;;;20.25;17.25;;;;;;;;;;5039257;28;20210;-68
2023/05/07 12:40:41;;;;;;;21.60;16.85;;;;;;;;;;5048205;28;20331;-68
2023/05/07 12:43:07;;;;;;;21.85;17.77;;;;;;;;;;5047173;28;20198;-69
2023/05/07 12:45:39;;;;;;;24.60;19.23;;;;;;;;;;5049642;28;20241;-70
2023/05/07 12:48:04;;;;;;;23.27;19.35;;;;;;;;;;5042881;28;20521;-69
2023/05/07 12:50:33;;;;;;;24.85;17.65;;;;;;;;;;5045517;28;20185;-68
2023/05/07 12:52:59;;;;;;;20.10;17.80;;;;;;;;;;5041754;28;20190;-70
2023/05/07 12:55:25;;;;;;;21.02;16.98;;;;;;;;;;5043078;28;20324;-69
2023/05/07 12:57:52;;;;;;;24.88;19.27;;;;;;;;;;5039679;28;20645;-70
2023/05/07 13:00:38;;;;;;;21.90;18.35;;;;;;;;;;5047614;28;20541;-70
2023/05/07 13:03:04;;;;;;;19.77;17.30;;;;;;;;;;5039162;28;20584;-69
2023/05/07 13:05:31;;;;;;;20.98;17.83;;;;;;;;;;5056935;28;20411;-68
2023/05/07 13:07:57;;;;;;;25.92;18.80;;;;;;;;;;5041442;28;20197;-69
2023/05/07 13:10:24;;;;;;;24.42;18.55;;;;;;;;;;5048835;28;20182;-69
2023/05/07 13:12:50;;;;;;;22.83;18.08;;;;;;;;;;5045956;28;20190;-69
2023/05/07 13:15:16;;;;;;;22.35;18.42;;;;;;;;;;5046571;28;20186;-69
2023/05/07 13:17:41;;;;;;;21.92;17.52;;;;;;;;;;5043743;28;20209;-70
2023/05/07 13:20:08;;;;;;;23.83;18.38;;;;;;;;;;5044815;28;20225;-70
2023/05/07 13:22:33;;;;;;;21.08;18.25;;;;;;;;;;5032705;28;20614;-70
2023/05/07 13:24:58;;;;;;;23.05;17.73;;;;;;;;;;5035231;28;20622;-69
2023/05/07 13:27:24;;;;;;;19.75;16.55;;;;;;;;;;5043585;28;20664;-70
2023/05/07 13:29:49;;;;;;;18.30;15.32;;;;;;;;;;5043053;28;20192;-70
2023/05/07 13:32:15;;;;;;;18.70;16.70;;;;;;;;;;5047937;28;20274;-71
2023/05/07 13:34:40;;;;;;;22.50;18.35;;;;;;;;;;5030699;28;20251;-69
2023/05/07 13:37:07;;;;;;;21.42;17.48;;;;;;;;;;5032786;28;20228;-69
2023/05/07 13:39:32;;;;;;;19.67;16.83;;;;;;;;;;5039129;28;20220;-70
2023/05/07 13:41:58;;;;;;;21.83;18.10;;;;;;;;;;5044348;28;20640;-70
2023/05/07 13:44:23;;;;;;;22.30;17.40;;;;;;;;;;5049080;28;20196;-70
2023/05/07 13:46:49;;;;;;;20.50;17.58;;;;;;;;;;5040549;28;20292;-70
2023/05/07 13:49:14;;;;;;;18.40;15.65;;;;;;;;;;5043911;28;20216;-70
2023/05/07 13:51:40;;;;;;;22.10;15.73;;;;;;;;;;5039909;28;20701;-70
2023/05/07 13:54:05;;;;;;;22.83;17.13;;;;;;;;;;5043730;28;20190;-70
2023/05/07 13:56:32;;;;;;;18.83;15.80;;;;;;;;;;5038662;28;20689;-69
2023/05/07 13:58:58;;;;;;;18.50;14.90;;;;;;;;;;5044356;28;20655;-69
2023/05/07 14:01:23;;;;;;;19.05;14.55;;;;;;;;;;5049778;28;20278;-69
2023/05/07 14:03:48;;;;;;;18.45;15.02;;;;;;;;;;5047881;28;20201;-69
2023/05/07 14:06:14;;;;;;;19.17;16.17;;;;;;;;;;5044452;28;20194;-69
2023/05/07 14:08:39;;;;;;;18.00;15.48;;;;;;;;;;5040400;28;20715;-70
2023/05/07 14:11:05;;;;;;;18.35;15.68;;;;;;;;;;5048249;28;20228;-70
2023/05/07 14:13:31;;;;;;;17.67;15.27;;;;;;;;;;5048451;28;20186;-70